Felipe Teixeira

Chefscout - Estoril Praia
20 Jan 2028
Donnerstag
Verarbeitung

Persönlichkeit

Anpassungsfähigkeit (18) Ehrgeiz (11) Kontroverse (8) Loyalität (8) Druck (12) Professionalität (2) Fairness (7) Temperament (18)

Profil

Trainerstil Demokratisch
Lizenz Nationale A
Entschlossenheit 10
Menschenführung 6
Motivation 7
Disziplin 4
Arbeitszufriedenheit
100%
Ermüdung
0%
Rolle Chefscout
Gehalt 66.5K p/W
Vertrag 14.03.2030

Leistung

Verhalten Gut
Trainingseffektivität
43%
Spielerentwicklung
50%
Verletzungsprävention
45%
Taktische Umsetzung
50%

Letzte Ereignisse

Nimmt an Fortbildung teil jetzt
Nahm an einer Scouting-Besprechung teil jetzt
Nahm an einer Scouting-Besprechung teil jetzt
Nahm an einer Scouting-Besprechung teil jetzt
Nahm an einer Scouting-Besprechung teil jetzt
Nahm an einer Scouting-Besprechung teil jetzt
Empfahl ein Transferziel jetzt
Nimmt an Fortbildung teil 7T her

Aktuell beobachtet

134
Spieler Verein Status Fähigkeit Vertrauen Beobachtet Zuletzt beobachtet Letzte Stimme
Ricardo Esgaio Gil Vicente Bericht bereit 116 / 116 60% 1 17.01.2028 -
André Geraldes Casa Pia Bericht bereit 110 / 110 60% 1 17.01.2028 -
Elba Rashani Sporting CP Bericht bereit 122 / 122 60% 1 06.01.2028 -
Mao Hosoya Everton Verhandlung 134 / 135 67% 1 01.01.2028 -
Santiago Hezze Chaves Verhandlung 132 / 133 62% 1 01.01.2028 -
Mohamed Ali Diadié Torreense Aktiv 111 / 103 76% 1 30.08.2027 Befürworten
Caleb Yirenkyi Coventry City Aktiv 138 / 134 40% 6 07.06.2027 -
Shea Lacey Wolverhampton Aktiv 124 / 120 40% 1 07.06.2027 -
Khama Dolly Utrecht Verhandlung 123 / 124 67% 1 01.06.2027 -
Salvador Blopá Casa Pia Aktiv 123 / 137 40% 5 31.05.2027 -
Kazunari Kita Real Sociedad Aktiv 96 / 97 40% 2 31.05.2027 -
Dylan Lawlor Cardiff City Aktiv 114 / 132 40% 5 31.05.2027 -
João Teixeira Porto Aktiv 106 / 127 40% 4 29.05.2027 -
Johan Manzambi Newcastle United Aktiv 143 / 152 40% 1 29.05.2027 -
Percy Jali Free State Stars Aktiv 97 / 96 40% 3 28.05.2027 -
Martim Cunha Porto Aktiv 101 / 106 40% 3 28.05.2027 -
Gonçalo Oliveira Benfica Aktiv 113 / 124 40% 4 27.05.2027 -
Christ Inao Oulaï Fiorentina Aktiv 138 / 127 40% 3 26.05.2027 -
Bernardo Lima Porto Aktiv 104 / 118 40% 4 22.05.2027 -
Tiago Freitas Benfica Aktiv 114 / 109 40% 7 22.05.2027 -
Leandro Martins Benfica Aktiv 88 / 84 40% 5 19.05.2027 -
Jofre Torrents Ajax Aktiv 128 / 134 40% 4 19.05.2027 -
Josh King Chelsea Aktiv 142 / 149 40% 2 17.05.2027 -
Matías Gómez Granada Aktiv 110 / 117 40% 4 15.05.2027 -
Zane Albarus Cambridge United Aktiv 94 / 112 40% 2 15.05.2027 -
Eduardo Felicíssimo Sporting CP Aktiv 104 / 126 67% 4 13.05.2027 Beobachten
Toni Tamarit Alverca Aktiv 113 / 111 40% 3 13.05.2027 -
Keagan Tau Ajax Cape Town Aktiv 97 / 111 40% 3 12.05.2027 -
Ernie Weaver AFC Wimbledon Aktiv 110 / 116 40% 4 10.05.2027 -
Davide Bartesaghi AC Milan Aktiv 134 / 139 40% 3 06.05.2027 -
Finley McAllister Grimsby Town Aktiv 85 / 101 40% 1 30.04.2027 -
Christos Mouzakitis Hull City Aktiv 128 / 130 40% 3 29.04.2027 -
David Ozoh Derby County Aktiv 116 / 137 40% 3 27.04.2027 -
Joel McGregor Swindon Town Aktiv 95 / 95 40% 1 25.04.2027 -
Cheveyo Tsawa Club Brugge Aktiv 115 / 129 40% 3 24.04.2027 -
Daniel Kelly Oxford United Aktiv 115 / 114 40% 1 22.04.2027 -
Sascha Britschgi Padova Aktiv 122 / 138 40% 2 21.04.2027 -
Adam Bakoune Ospitaletto Aktiv 95 / 103 40% 1 18.04.2027 -
Vasco Santos Oliveirense Aktiv 92 / 93 40% 1 17.04.2027 -
Daniel Costa Sporting CP Aktiv 87 / 96 40% 1 15.04.2027 -
Keagan Phiri Platinum Stars Aktiv 98 / 119 40% 1 15.04.2027 -
Daniel Vernattus Metalist Aktiv 96 / 93 40% 1 13.04.2027 -
José Pachuca Puebla Aktiv 113 / 117 40% 3 11.04.2027 -
Zaïd BafdilI Sporting CP Aktiv 96 / 101 67% 6 11.04.2027 Beobachten
Fuzy Taylor Medeama Aktiv 72 / 77 40% 1 07.04.2027 -
James Dornelly Peterborough United Aktiv 100 / 112 40% 1 13.03.2027 -
Cathal Heffernan Harrogate Town Aktiv 86 / 97 40% 1 10.03.2027 -
Jan Bürger Gillingham Aktiv 111 / 112 40% 1 08.03.2027 -
Joaquin Seys Club Brugge Aktiv 124 / 125 40% 2 06.03.2027 -
Kevin Vazquez Cruz Azul Aktiv 131 / 127 40% 1 05.03.2027 -
Riley Owen Trento Aktiv 97 / 100 40% 1 02.03.2027 -
Juan Giménez Celta Aktiv 120 / 117 40% 1 01.03.2027 -
Jefry Zapata Danubio Verloren 118 / 118 67% 1 01.01.2027 -
Duk Atlas Aktiv 111 / 105 40% 2 30.12.2026 -
Vinícius Lopes Santa Clara Aktiv 119 / 122 40% 6 30.12.2026 -
Adnan Courtois KV Oostende Aktiv 133 / 134 40% 6 29.12.2026 -
Richard Koné Queens Park Rangers Aktiv 121 / 126 40% 1 28.12.2026 -
Gonzalo Fulham Aktiv 147 / 149 40% 2 27.12.2026 -
Yousef Salech Cardiff City Aktiv 129 / 119 40% 2 26.12.2026 -
Dom Ballard Leyton Orient Aktiv 115 / 137 40% 2 26.12.2026 -
Evidence Makgopa Orlando Pirates Aktiv 121 / 110 40% 1 25.12.2026 -
Wilson Isidor Sunderland Aktiv 136 / 149 40% 3 24.12.2026 -
Robert Mizo Ashanti Gold Aktiv 108 / 91 40% 2 23.12.2026 -
Ryan Sessegnon Fulham Aktiv 151 / 141 40% 2 22.12.2026 -
Tyrese Campbell Sheffield United Aktiv 131 / 115 40% 2 22.12.2026 -
Víctor Gómez Braga Aktiv 134 / 126 40% 2 22.12.2026 -
Williams Manyama SuperSport United Aktiv 109 / 111 40% 1 22.12.2026 -
Pau Víctor AVS Aktiv 134 / 153 40% 3 21.12.2026 -
Roberto Fernández Braga Aktiv 147 / 125 40% 4 21.12.2026 Beobachten
Giacomo Raspadori Atalanta Aktiv 151 / 135 40% 4 19.12.2026 -
Mathias Jørgensen Blackburn Rovers Aktiv 125 / 125 40% 2 19.12.2026 -
Cameron Archer Southampton Aktiv 120 / 120 40% 1 19.12.2026 -
Adrien Truffert Bournemouth Aktiv 152 / 155 40% 2 15.12.2026 -
Gustavo Silva Vitoria Guimaraes Aktiv 122 / 111 40% 2 11.12.2026 -
Luis Vázquez Birmingham Aktiv 136 / 124 40% 3 11.12.2026 -
Brayan León Mamelodi Sundowns Aktiv 115 / 125 40% 1 11.12.2026 -
Zé Leite Leixões Aktiv 115 / 100 40% 4 09.12.2026 -
Morgan Whittaker Middlesbrough Aktiv 132 / 144 40% 2 09.12.2026 -
Everton Bala Levski Aktiv 130 / 125 40% 1 09.12.2026 -
Soma Anzai FC Tokyo Aktiv 112 / 114 40% 1 09.12.2026 -
Figueiredo Alverca Aktiv 128 / 123 40% 3 05.12.2026 -
Ruben van Bommel Ferencvaros Aktiv 136 / 138 40% 2 04.12.2026 -
Yan Diomandé Real Madrid Aktiv 153 / 157 40% 1 04.12.2026 -
Mohamed-Ali Cho Hull City Aktiv 133 / 131 40% 1 02.12.2026 -
Tommy Conway Middlesbrough Aktiv 131 / 131 40% 2 01.12.2026 -
Mandla Mahlangu Ajax Cape Town Aktiv 110 / 112 40% 3 29.11.2026 -
Barış Alper Yılmaz Galatasaray Aktiv 142 / 147 40% 1 28.11.2026 -
Kwame Poku Queens Park Rangers Aktiv 120 / 135 40% 1 25.11.2026 -
Ole Pohlmann Rio Ave Aktiv 121 / 118 40% 2 23.11.2026 -
Jason Knight Bristol City Aktiv 123 / 127 40% 1 23.11.2026 -
Joshua Zirkzee Manchester United Aktiv 141 / 136 40% 1 21.11.2026 -
Ştefan Baiaram Universitatea Craiova Aktiv 126 / 125 40% 1 19.11.2026 -
Lorent Tolaj Plymouth Argyle Aktiv 117 / 119 40% 1 18.11.2026 -
Álvaro Rodríguez Bournemouth Aktiv 138 / 141 40% 2 16.11.2026 -
Themba Ngcobo SuperSport United Aktiv 118 / 120 40% 1 16.11.2026 -
Othmane Maamma Watford Aktiv 125 / 126 40% 1 16.11.2026 -
William Gomes Porto Aktiv 135 / 134 40% 1 14.11.2026 -
Alfonso Trezza Arouca Aktiv 127 / 112 40% 2 09.11.2026 -
Dávid Strelec Middlesbrough Aktiv 133 / 138 40% 1 09.11.2026 -
Will Lankshear Middlesbrough Aktiv 122 / 131 40% 1 06.11.2026 -
Georginio Rutter Brighton Aktiv 148 / 137 40% 5 04.11.2026 -
Jalen Blesa Rio Ave Aktiv 117 / 102 40% 3 31.10.2026 -
Joe Gelhardt Hull City Aktiv 125 / 130 40% 1 30.10.2026 -
Iker Benito Queretaro Aktiv 123 / 102 40% 1 30.10.2026 -
Bénie Traoré New York City Aktiv 115 / 129 40% 1 26.10.2026 -
Kévin Denkey FC Cincinnati Aktiv 124 / 112 40% 2 25.10.2026 -
Zeki Amdouni Burnley Aktiv 137 / 124 40% 1 25.10.2026 -
Efraín Álvarez Guadalajara Aktiv 139 / 139 40% 2 24.10.2026 -
Antonio Galeano Remo Stars Aktiv 127 / 134 40% 2 23.10.2026 -
Adriano Bertaccini Anderlecht Aktiv 122 / 112 40% 1 20.10.2026 -
Nicolás Cordero Aldosivi Aktiv 117 / 118 40% 1 19.10.2026 -
Florentino Luís Ipswich Town Aktiv 140 / 136 40% 1 18.10.2026 -
Facundo Cáseres Gil Vicente Aktiv 117 / 107 40% 1 17.10.2026 -
Félix Lemaréchal Club Brugge Aktiv 134 / 148 40% 1 17.10.2026 -
Nicolò Tresoldi Club Brugge Aktiv 136 / 144 40% 1 15.10.2026 -
Isaiah Jones Luton Town Aktiv 119 / 109 40% 1 14.10.2026 -
Brian Gutiérrez Guadalajara Aktiv 131 / 113 40% 1 14.10.2026 -
Manuel Ospina Cortulua Aktiv 128 / 112 40% 1 12.10.2026 -
Wessam Abou Ali Columbus Crew Aktiv 129 / 129 40% 2 11.10.2026 -
Daniel Karlsbakk Sarpsborg 08 Aktiv 120 / 133 40% 1 11.10.2026 Mehr Infos nötig
Ozziel Herrera Tigres Aktiv 127 / 121 40% 2 10.10.2026 -
Francisco Moura Lusitânia Lourosa Aktiv 134 / 121 40% 1 07.10.2026 -
Rafael Navarro St. Louis CITY SC Aktiv 129 / 131 40% 1 05.10.2026 -
Xavi Simons Tottenham Aktiv 158 / 165 40% 1 13.09.2026 -
Dinis Pinto Moreirense Aktiv 125 / 122 40% 1 10.09.2026 -
Martín Ortega Newell's Old Boys Aktiv 120 / 118 40% 1 09.09.2026 -
Richard Ledezma Guadalajara Aktiv 126 / 115 40% 1 08.09.2026 -
Dylan Borrero America de Cali Aktiv 121 / 109 40% 1 08.09.2026 -
Fidel Ambríz Monterrey Aktiv 133 / 113 40% 1 08.09.2026 -
Tomás Chancalay Minnesota United FC Aktiv 118 / 141 40% 1 07.09.2026 -
Riqui Puig LA Galaxy Aktiv 143 / 145 40% 1 07.09.2026 -
João Simões Sporting CP Aktiv 133 / 128 40% 1 04.09.2026 -
Roméo Beney Famalicao Aktiv 111 / 130 40% 1 04.09.2026 -
Róyner Benítez Aguilas Doradas Aktiv 103 / 114 40% 1 11.08.2026 -